createdAt,value
2017-09-15T04:36:14.352Z,11.89
2017-09-15T04:37:28.059Z,11.77
2017-09-15T04:38:41.881Z,11.65
2017-09-15T04:39:55.659Z,11.68
2017-09-15T04:41:19.426Z,11.85
2017-09-15T04:42:44.853Z,11.63
2017-09-15T04:44:03.069Z,11.78
2017-09-15T04:45:16.639Z,11.74
2017-09-15T04:46:30.520Z,11.62
2017-09-15T04:47:44.762Z,11.58
2017-09-15T04:49:21.734Z,11.56
2017-09-15T04:50:35.600Z,11.62
2017-09-15T04:51:49.572Z,11.56
2017-09-15T04:53:03.543Z,11.51
2017-09-15T04:54:17.663Z,11.52
2017-09-15T04:55:32.001Z,11.49
2017-09-15T04:56:46.924Z,11.48
2017-09-15T04:58:00.696Z,11.38
2017-09-15T04:59:14.848Z,11.31
2017-09-15T05:00:42.794Z,11.34
2017-09-15T05:01:56.727Z,11.31
2017-09-15T05:03:10.828Z,11.31
2017-09-15T05:04:24.753Z,11.33
2017-09-15T05:05:38.933Z,11.37
2017-09-15T05:06:52.623Z,11.31
2017-09-15T05:08:52.721Z,11.45
2017-09-15T05:10:06.519Z,11.37
2017-09-15T05:11:20.640Z,11.41
2017-09-15T05:12:35.353Z,11.52
2017-09-15T05:13:49.521Z,11.51
2017-09-15T05:15:03.462Z,11.63
2017-09-15T05:16:17.645Z,11.65
2017-09-15T05:18:11.152Z,11.63
2017-09-15T05:19:24.978Z,11.58
2017-09-15T05:20:38.865Z,11.59
2017-09-15T05:21:52.848Z,11.63
2017-09-15T05:23:06.964Z,11.67
2017-09-15T05:24:21.423Z,11.68
2017-09-15T05:25:35.123Z,11.53
2017-09-15T05:26:51.976Z,11.58
2017-09-15T05:28:05.795Z,11.58
2017-09-15T05:29:40.922Z,11.7
2017-09-15T05:30:54.689Z,11.62
2017-09-15T05:32:08.312Z,11.67
2017-09-15T05:33:22.293Z,11.6
2017-09-15T05:34:36.207Z,11.68
2017-09-15T05:35:50.311Z,11.65
2017-09-15T05:37:04.413Z,11.71
2017-09-15T05:38:18.299Z,11.83
2017-09-15T05:39:31.907Z,11.85
2017-09-15T05:41:05.592Z,11.95
2017-09-15T05:42:19.481Z,12.02
2017-09-15T05:43:33.073Z,12.02
2017-09-15T05:44:47.495Z,12.12
2017-09-15T05:46:01.279Z,12.07
2017-09-15T05:47:15.334Z,12.14
2017-09-15T05:48:29.441Z,12.15
2017-09-15T05:49:43.957Z,12.14
2017-09-15T05:50:57.914Z,12.14
2017-09-15T05:52:12.377Z,12.18
2017-09-15T05:53:26.526Z,12.15
2017-09-15T05:54:43.151Z,12.29
2017-09-15T05:55:57.659Z,12.29
2017-09-15T05:57:28.414Z,12.3
2017-09-15T05:59:02.447Z,12.37
2017-09-15T06:00:48.240Z,12.47
2017-09-15T06:02:02.487Z,12.35
2017-09-15T06:03:16.899Z,12.44
2017-09-15T06:04:44.980Z,12.39
2017-09-15T06:05:59.225Z,12.4
2017-09-15T06:07:13.165Z,12.28
2017-09-15T06:08:26.876Z,12.4
2017-09-15T06:09:49.377Z,12.36
2017-09-15T06:11:08.534Z,12.33
2017-09-15T06:12:22.836Z,12.35
2017-09-15T06:13:36.745Z,12.37
2017-09-15T06:15:43.038Z,12.45
2017-09-15T06:16:56.971Z,12.53
2017-09-15T06:18:10.610Z,12.51
2017-09-15T06:19:24.453Z,12.53
2017-09-15T06:20:38.027Z,12.58
2017-09-15T06:21:51.874Z,12.7
2017-09-15T06:23:06.412Z,12.68
2017-09-15T06:24:20.566Z,12.68
2017-09-15T06:25:34.454Z,12.66
2017-09-15T06:26:48.728Z,12.69
2017-09-15T06:28:02.712Z,12.73
2017-09-15T06:29:17.104Z,12.68
2017-09-15T06:30:31.632Z,12.7
2017-09-15T06:32:13.366Z,12.7
2017-09-15T06:33:27.144Z,12.72
2017-09-15T06:34:41.020Z,12.68
2017-09-15T06:35:54.875Z,12.68
2017-09-15T06:37:08.808Z,12.69
2017-09-15T06:38:23.263Z,12.68
2017-09-15T06:39:37.406Z,12.62
2017-09-15T06:40:51.222Z,12.68
2017-09-15T06:42:05.034Z,12.72
2017-09-15T06:43:18.837Z,12.76
2017-09-15T06:44:32.853Z,12.68
2017-09-15T06:45:47.268Z,12.76
2017-09-15T06:47:03.960Z,12.94
2017-09-15T06:48:36.006Z,12.99
2017-09-15T06:49:49.805Z,13.05
2017-09-15T06:51:03.458Z,13.08
2017-09-15T06:52:17.988Z,13.06
2017-09-15T06:53:31.588Z,13.08
2017-09-15T06:54:45.785Z,13.09
2017-09-15T06:55:59.798Z,13.13
2017-09-15T06:57:13.666Z,13.09
2017-09-15T06:58:27.245Z,12.99
2017-09-15T06:59:43.762Z,12.99
2017-09-15T07:00:57.584Z,13.12
2017-09-15T07:02:25.885Z,13.19
2017-09-15T07:03:40.117Z,13.13
2017-09-15T07:04:54.594Z,13.17
2017-09-15T07:06:08.556Z,13.13
2017-09-15T07:07:22.362Z,13.2
2017-09-15T07:08:37.344Z,13.31
2017-09-15T07:09:51.819Z,13.3
2017-09-15T07:11:06.519Z,13.42
2017-09-15T07:12:50.209Z,13.47
2017-09-15T07:14:03.883Z,13.57
2017-09-15T07:15:18.198Z,13.6
2017-09-15T07:16:33.239Z,13.64
2017-09-15T07:17:49.497Z,13.61
2017-09-15T07:19:29.766Z,13.75
2017-09-15T07:20:43.595Z,13.75
2017-09-15T07:21:59.751Z,13.67
2017-09-15T07:23:13.864Z,13.86
2017-09-15T07:24:27.539Z,13.87
2017-09-15T07:25:41.455Z,13.85
2017-09-15T07:26:55.388Z,13.95
2017-09-15T07:28:40.724Z,13.91
2017-09-15T07:29:54.812Z,13.97
2017-09-15T07:31:09.675Z,14.04
2017-09-15T07:32:23.747Z,14.07
2017-09-15T07:33:37.643Z,14.07
2017-09-15T07:34:51.519Z,14.11
2017-09-15T07:36:05.792Z,14.08
2017-09-15T07:37:20.225Z,14.12
2017-09-15T07:38:33.864Z,14.08
2017-09-15T07:39:47.861Z,14.11
2017-09-15T07:41:01.974Z,14.15
2017-09-15T07:43:00.841Z,14.23
2017-09-15T07:44:16.236Z,14.37
2017-09-15T07:45:34.903Z,14.45
2017-09-15T07:47:37.126Z,14.34
2017-09-15T07:49:21.213Z,14.38
2017-09-15T07:50:46.991Z,14.34
2017-09-15T07:52:12.368Z,14.4
2017-09-15T07:53:37.238Z,14.55
2017-09-15T07:54:59.796Z,14.68
2017-09-15T07:56:48.995Z,14.52
2017-09-15T07:58:23.996Z,14.55
2017-09-15T07:59:51.360Z,14.7
2017-09-15T08:01:15.482Z,14.77
2017-09-15T08:02:39.061Z,14.79
2017-09-15T08:04:04.063Z,15.02
2017-09-15T08:05:47.601Z,15.08
2017-09-15T08:07:09.969Z,14.96
2017-09-15T08:08:29.896Z,15.07
2017-09-15T08:09:55.844Z,15.25
2017-09-15T08:11:26.537Z,15.29
2017-09-15T08:12:52.915Z,15.36
2017-09-15T08:14:17.026Z,15.35
2017-09-15T08:15:43.368Z,15.43
2017-09-15T08:17:10.274Z,15.44
2017-09-15T08:18:48.644Z,15.55
2017-09-15T08:20:58.727Z,15.55
2017-09-15T08:22:50.346Z,15.57
2017-09-15T08:24:17.727Z,15.62
2017-09-15T08:25:41.884Z,15.65
2017-09-15T08:27:33.390Z,15.65
2017-09-15T08:29:10.055Z,15.73
2017-09-15T08:30:59.002Z,15.69
2017-09-15T08:32:37.075Z,15.55
2017-09-15T08:33:59.554Z,15.48
2017-09-15T08:35:25.081Z,15.6
2017-09-15T08:36:51.651Z,15.73
2017-09-15T08:38:14.011Z,15.83
2017-09-15T08:40:06.723Z,15.8
2017-09-15T08:41:55.171Z,15.84
2017-09-15T08:43:36.828Z,15.76
2017-09-15T08:45:04.203Z,15.72
2017-09-15T08:46:27.462Z,15.7
2017-09-15T08:47:50.850Z,15.66
2017-09-15T08:49:23.176Z,15.59
2017-09-15T08:50:46.848Z,15.45
2017-09-15T08:52:11.242Z,15.41
2017-09-15T08:54:12.432Z,15.59
2017-09-15T08:55:49.120Z,15.55
2017-09-15T08:57:15.695Z,15.69
2017-09-15T08:58:37.075Z,15.73
2017-09-15T08:59:59.872Z,15.81
2017-09-15T09:01:22.754Z,15.88
2017-09-15T09:02:48.645Z,15.85
2017-09-15T09:04:14.440Z,15.85
2017-09-15T09:05:45.176Z,15.91
2017-09-15T09:07:06.217Z,15.99
2017-09-15T09:08:27.714Z,16.36
2017-09-15T09:10:00.010Z,16.58
2017-09-15T09:11:21.897Z,16.54
2017-09-15T09:13:49.045Z,16.66
2017-09-15T09:15:11.506Z,16.79
2017-09-15T09:16:34.144Z,16.76
2017-09-15T09:17:55.375Z,16.84
2017-09-15T09:19:09.138Z,16.73
2017-09-15T09:20:23.044Z,16.86
2017-09-15T09:21:37.224Z,16.94
2017-09-15T09:22:51.013Z,17.05
2017-09-15T09:24:05.222Z,17.16
2017-09-15T09:25:18.936Z,17.3
2017-09-15T09:26:32.594Z,17.14
2017-09-15T09:27:46.738Z,17.07
2017-09-15T09:29:00.500Z,17.14
2017-09-15T09:30:14.578Z,17.17
2017-09-15T09:31:28.769Z,17.05
2017-09-15T09:32:42.787Z,16.86
2017-09-15T09:33:57.620Z,16.94
2017-09-15T09:35:11.677Z,17.02
2017-09-15T09:36:25.481Z,16.99
2017-09-15T09:37:39.237Z,17.16
2017-09-15T09:38:53.125Z,17.13
2017-09-15T09:40:07.326Z,17.24
2017-09-15T09:41:21.038Z,17.28
2017-09-15T09:42:34.998Z,17.24
2017-09-15T09:43:48.744Z,17.24
2017-09-15T09:45:02.616Z,17.24
2017-09-15T09:46:17.007Z,17.22
2017-09-15T09:47:30.807Z,17.02
2017-09-15T09:48:44.553Z,16.97
2017-09-15T09:49:58.342Z,16.98
2017-09-15T09:51:12.037Z,16.97
2017-09-15T09:52:26.963Z,17.19
2017-09-15T09:53:41.157Z,17.31
2017-09-15T09:54:55.103Z,17.3
2017-09-15T09:56:08.866Z,17.42
2017-09-15T09:57:23.076Z,17.32
2017-09-15T09:58:37.007Z,17.37
2017-09-15T09:59:50.590Z,17.3
2017-09-15T10:01:04.787Z,16.97
2017-09-15T10:02:18.741Z,16.91
2017-09-15T10:03:32.815Z,16.91
2017-09-15T10:04:46.428Z,16.72
2017-09-15T10:06:02.881Z,16.66
2017-09-15T10:07:17.295Z,16.72
2017-09-15T10:08:31.128Z,16.72
2017-09-15T10:09:44.861Z,16.83
2017-09-15T10:10:59.207Z,16.87
2017-09-15T10:12:13.399Z,16.89
2017-09-15T10:13:27.241Z,17.04
2017-09-15T10:14:41.543Z,16.91
2017-09-15T10:15:55.889Z,16.99
2017-09-15T10:17:14.874Z,17.02
2017-09-15T10:18:33.762Z,16.87
2017-09-15T10:19:47.409Z,16.82
2017-09-15T10:21:03.278Z,16.99
2017-09-15T10:22:19.020Z,17.04
2017-09-15T10:23:33.037Z,17.19
2017-09-15T10:24:47.041Z,16.98
2017-09-15T10:26:02.763Z,16.92
2017-09-15T10:27:17.433Z,16.83
2017-09-15T10:28:32.417Z,17.02
2017-09-15T10:29:47.251Z,16.92
2017-09-15T10:31:01.199Z,16.95
2017-09-15T10:32:15.432Z,16.91
2017-09-15T10:33:29.161Z,17.07
2017-09-15T10:34:42.770Z,17.23
2017-09-15T10:35:57.429Z,17.41
2017-09-15T10:37:11.247Z,17.57
2017-09-15T10:38:24.840Z,17.44
2017-09-15T10:39:38.584Z,17.42
2017-09-15T10:40:52.739Z,17.32
2017-09-15T10:42:06.403Z,17.5
2017-09-15T10:43:19.989Z,17.63
2017-09-15T10:44:33.617Z,17.94
2017-09-15T10:45:47.442Z,18.16
2017-09-15T10:47:01.263Z,18.45
2017-09-15T10:48:14.937Z,18.58
2017-09-15T10:49:28.554Z,18.79
2017-09-15T10:50:42.196Z,19.08
2017-09-15T10:51:56.102Z,19.26
2017-09-15T10:53:10.122Z,19.55
2017-09-15T10:54:23.996Z,19.75
2017-09-15T10:55:37.618Z,19.67
2017-09-15T10:56:51.599Z,19.71
2017-09-15T10:58:05.273Z,19.6
2017-09-15T10:59:18.896Z,19.41
2017-09-15T11:00:32.711Z,19.12
2017-09-15T11:01:46.300Z,19
2017-09-15T11:03:00.060Z,18.89
2017-09-15T11:04:13.663Z,18.64
2017-09-15T11:05:27.281Z,18.57
2017-09-15T11:06:41.135Z,18.39
2017-09-15T11:07:55.289Z,18.43
2017-09-15T11:09:29.032Z,18.51
2017-09-15T11:10:42.793Z,18.34
2017-09-15T11:11:57.485Z,18.48
2017-09-15T11:13:11.077Z,18.57
2017-09-15T11:14:25.020Z,18.45
2017-09-15T11:15:39.374Z,18.48
2017-09-15T11:16:53.140Z,18.3
2017-09-15T11:18:08.307Z,18.49
2017-09-15T11:19:22.093Z,18.39
2017-09-15T11:20:35.765Z,18.43
2017-09-15T11:21:49.430Z,18.45
2017-09-15T11:23:03.048Z,18.36
2017-09-15T11:24:17.521Z,18.39
2017-09-15T11:25:31.517Z,18.49
2017-09-15T11:26:45.320Z,18.49
2017-09-15T11:27:59.808Z,18.49
2017-09-15T11:29:13.811Z,18.41
2017-09-15T11:30:27.750Z,18.34
2017-09-15T11:31:41.341Z,18.39
2017-09-15T11:32:55.097Z,18.46
2017-09-15T11:34:08.998Z,18.7
2017-09-15T11:35:23.064Z,18.66
2017-09-15T11:36:38.241Z,18.48
2017-09-15T11:37:51.848Z,18.27
2017-09-15T11:39:05.439Z,18.39
2017-09-15T11:40:19.281Z,18.36
2017-09-15T11:41:32.880Z,18.45
2017-09-15T11:42:46.790Z,18.45
2017-09-15T11:44:00.398Z,18.49
2017-09-15T11:45:14.360Z,18.66
2017-09-15T11:46:28.370Z,18.68
2017-09-15T11:47:41.954Z,18.53
2017-09-15T11:48:56.269Z,18.31
2017-09-15T11:50:10.021Z,18.19
2017-09-15T11:51:23.781Z,18.18
2017-09-15T11:52:37.466Z,17.9
2017-09-15T11:53:51.980Z,17.79
2017-09-15T11:55:06.194Z,17.73
2017-09-15T11:56:20.727Z,17.8
2017-09-15T11:57:34.800Z,17.93
2017-09-15T11:58:48.715Z,17.93
2017-09-15T12:00:02.650Z,17.95
2017-09-15T12:01:16.347Z,17.9
2017-09-15T12:02:30.051Z,17.9
2017-09-15T12:03:43.706Z,17.95
2017-09-15T12:04:58.190Z,17.98
2017-09-15T12:06:13.257Z,18.08
2017-09-15T12:07:28.357Z,18.16
2017-09-15T12:08:42.091Z,18.18
2017-09-15T12:09:55.881Z,18.28
2017-09-15T12:11:10.005Z,18.28
2017-09-15T12:12:23.969Z,18.45
2017-09-15T12:13:38.614Z,18.55
2017-09-15T12:14:52.947Z,18.73
2017-09-15T12:16:06.632Z,18.7
2017-09-15T12:17:21.311Z,18.74
2017-09-15T12:18:35.607Z,18.63
2017-09-15T12:19:49.630Z,18.64
2017-09-15T12:21:03.677Z,18.67
2017-09-15T12:22:18.541Z,18.66
2017-09-15T12:23:32.578Z,18.43
2017-09-15T12:24:46.627Z,18.19
2017-09-15T12:26:00.540Z,18.15
2017-09-15T12:27:14.252Z,18.03
2017-09-15T12:28:29.249Z,17.97
2017-09-15T12:29:43.251Z,17.91
2017-09-15T12:30:57.307Z,17.79
2017-09-15T12:32:11.725Z,17.53
2017-09-15T12:33:57.778Z,16.84
2017-09-15T12:35:11.797Z,16.55
2017-09-15T12:36:26.791Z,16.1
2017-09-15T12:37:41.059Z,15.48
2017-09-15T12:38:55.186Z,15.1
2017-09-15T12:40:09.519Z,14.77
2017-09-15T12:41:24.157Z,14.71
2017-09-15T12:42:38.349Z,14.67
2017-09-15T12:43:52.619Z,14.78
2017-09-15T12:45:06.508Z,14.74
2017-09-15T12:46:20.196Z,15
2017-09-15T12:47:34.057Z,14.99
2017-09-15T12:48:48.563Z,15.12
2017-09-15T12:50:02.293Z,15.29
2017-09-15T12:51:15.979Z,15.51
2017-09-15T12:52:29.775Z,15.72
2017-09-15T12:53:43.412Z,15.83
2017-09-15T12:54:57.577Z,15.96
2017-09-15T12:56:11.251Z,16.03
2017-09-15T12:57:24.837Z,16.29
2017-09-15T12:58:38.755Z,16.49
2017-09-15T12:59:52.812Z,16.79
2017-09-15T13:01:06.705Z,16.94
2017-09-15T13:02:20.451Z,16.99
2017-09-15T13:03:34.026Z,17.16
2017-09-15T13:04:47.897Z,17.35
2017-09-15T13:06:01.547Z,17.38
2017-09-15T13:07:15.504Z,17.68
2017-09-15T13:08:29.536Z,17.63
2017-09-15T13:09:43.596Z,17.87
2017-09-15T13:10:57.829Z,17.82
2017-09-15T13:12:11.502Z,17.86
2017-09-15T13:13:25.488Z,17.84
2017-09-15T13:14:39.198Z,17.79
2017-09-15T13:15:54.294Z,17.78
2017-09-15T13:17:08.290Z,17.94
2017-09-15T13:18:23.270Z,18.15
2017-09-15T13:19:36.886Z,18
2017-09-15T13:20:50.772Z,18.09
2017-09-15T13:22:05.139Z,17.97
2017-09-15T13:23:18.757Z,17.9
2017-09-15T13:24:32.439Z,17.82
2017-09-15T13:25:46.108Z,17.63
2017-09-15T13:26:59.724Z,17.63
2017-09-15T13:28:13.667Z,17.63
2017-09-15T13:29:27.290Z,17.57
2017-09-15T13:30:41.253Z,17.6
2017-09-15T13:31:55.084Z,17.42
2017-09-15T13:33:08.680Z,17.34
2017-09-15T13:34:22.335Z,17.42
2017-09-15T13:35:35.904Z,17.46
2017-09-15T13:36:49.661Z,17.69
2017-09-15T13:38:03.529Z,17.87
2017-09-15T13:39:17.328Z,17.88
2017-09-15T13:40:31.517Z,17.86
2017-09-15T13:41:45.445Z,17.84
2017-09-15T13:42:59.231Z,17.9
2017-09-15T13:44:12.984Z,17.95
2017-09-15T13:45:28.162Z,17.95
2017-09-15T13:46:42.255Z,18
2017-09-15T13:47:56.404Z,18.02
2017-09-15T13:49:10.094Z,18.21
2017-09-15T13:50:23.698Z,18.18
2017-09-15T13:51:37.546Z,18.11
2017-09-15T13:52:51.811Z,18
2017-09-15T13:54:05.771Z,17.94
2017-09-15T13:55:20.649Z,17.88
2017-09-15T13:56:34.371Z,17.93
2017-09-15T13:57:48.541Z,17.68
2017-09-15T13:59:02.495Z,17.84
2017-09-15T14:00:16.217Z,17.9
2017-09-15T14:01:34.545Z,17.78
2017-09-15T14:02:48.156Z,17.69
2017-09-15T14:04:01.733Z,17.57
2017-09-15T14:05:15.728Z,17.56
2017-09-15T14:06:29.412Z,17.53
2017-09-15T14:07:43.047Z,17.41
2017-09-15T14:08:57.032Z,17.44
2017-09-15T14:10:10.635Z,17.34
2017-09-15T14:11:24.241Z,17.24
2017-09-15T14:12:38.766Z,17.42
2017-09-15T14:13:52.486Z,17.63
2017-09-15T14:15:06.459Z,17.94
2017-09-15T14:16:20.361Z,17.9
2017-09-15T14:17:33.954Z,18.02
2017-09-15T14:18:47.627Z,17.98
2017-09-15T14:20:01.239Z,17.97
2017-09-15T14:21:14.980Z,17.97
2017-09-15T14:22:28.650Z,17.91
2017-09-15T14:23:42.661Z,17.94
2017-09-15T14:24:56.299Z,17.91
2017-09-15T14:26:10.150Z,17.95
2017-09-15T14:27:24.293Z,17.82
2017-09-15T14:28:38.681Z,17.57
2017-09-15T14:29:52.339Z,17.59
2017-09-15T14:31:06.698Z,17.44
2017-09-15T14:32:20.832Z,17.39
2017-09-15T14:33:35.465Z,17.3
2017-09-15T14:34:49.730Z,17.22
2017-09-15T14:36:03.398Z,17.12
2017-09-15T14:37:17.169Z,17.17
2017-09-15T14:38:30.951Z,17.12
2017-09-15T14:39:45.063Z,17.13
2017-09-15T14:40:58.972Z,17.19
2017-09-15T14:42:12.903Z,17.3
2017-09-15T14:43:26.522Z,17.47
2017-09-15T14:44:41.673Z,17.57
2017-09-15T14:45:55.458Z,17.68
2017-09-15T14:47:09.060Z,17.75
2017-09-15T14:48:22.665Z,17.84
2017-09-15T14:49:36.307Z,17.95
2017-09-15T14:50:50.518Z,17.93
2017-09-15T14:52:04.940Z,17.97
2017-09-15T14:53:18.849Z,17.87
2017-09-15T14:54:32.723Z,17.78
2017-09-15T14:55:46.803Z,17.66
2017-09-15T14:57:00.550Z,17.54
2017-09-15T14:58:15.728Z,17.6
2017-09-15T14:59:30.069Z,17.69
2017-09-15T15:00:43.693Z,17.68
2017-09-15T15:01:57.735Z,17.68
2017-09-15T15:03:11.513Z,17.65
2017-09-15T15:04:25.807Z,17.68
2017-09-15T15:05:40.209Z,17.86
2017-09-15T15:06:53.827Z,17.91
2017-09-15T15:08:07.552Z,17.93
2017-09-15T15:09:21.137Z,17.88
2017-09-15T15:10:35.068Z,18.09
2017-09-15T15:11:49.507Z,18.08
2017-09-15T15:13:03.605Z,17.97
2017-09-15T15:14:17.210Z,18.15
2017-09-15T15:15:31.107Z,17.95
2017-09-15T15:16:45.078Z,18.02
2017-09-15T15:18:00.350Z,18.03
2017-09-15T15:19:14.813Z,18.08
2017-09-15T15:20:30.329Z,17.95
2017-09-15T15:21:44.773Z,17.98
2017-09-15T15:22:58.421Z,17.9
2017-09-15T15:24:13.180Z,17.82
2017-09-15T15:25:26.926Z,17.75
2017-09-15T15:26:41.170Z,17.79
2017-09-15T15:27:55.279Z,17.76
2017-09-15T15:29:09.952Z,17.87
2017-09-15T15:30:24.248Z,17.94
2017-09-15T15:31:37.890Z,17.93
2017-09-15T15:32:51.510Z,17.71
2017-09-15T15:34:05.127Z,17.57
2017-09-15T15:35:18.751Z,17.35
2017-09-15T15:36:33.288Z,17.27
2017-09-15T15:37:47.578Z,17.24
2017-09-15T15:39:01.330Z,17.17
2017-09-15T15:40:34.453Z,17.01
2017-09-15T15:41:49.966Z,16.95
2017-09-15T15:43:03.727Z,16.86
2017-09-15T15:44:17.765Z,16.92
2017-09-15T15:45:31.405Z,16.83
2017-09-15T15:46:45.837Z,16.65
2017-09-15T15:47:59.896Z,16.54
2017-09-15T15:49:13.578Z,16.36
2017-09-15T15:50:27.242Z,16.24
2017-09-15T15:51:41.541Z,16.25
2017-09-15T15:52:55.951Z,16.24
2017-09-15T15:54:11.020Z,16.24
2017-09-15T15:55:25.007Z,16.25
2017-09-15T15:56:39.398Z,16.26
2017-09-15T15:57:53.143Z,16.29
2017-09-15T15:59:07.096Z,16.34
2017-09-15T16:00:21.026Z,16.18
2017-09-15T16:01:34.688Z,16.25
2017-09-15T16:02:48.477Z,16.13
2017-09-15T16:04:02.236Z,16
2017-09-15T16:05:16.146Z,16
2017-09-15T16:06:30.785Z,15.88
2017-09-15T16:07:44.684Z,15.87
2017-09-15T16:08:58.482Z,15.69
2017-09-15T16:10:12.488Z,15.6
2017-09-15T16:11:26.430Z,15.48
2017-09-15T16:12:40.349Z,15.43
2017-09-15T16:13:53.976Z,15.35
2017-09-15T16:15:07.854Z,15.35
2017-09-15T16:16:22.103Z,15.29
2017-09-15T16:17:36.600Z,15.17
2017-09-15T16:18:51.738Z,15.22
2017-09-15T16:20:05.563Z,15.12
2017-09-15T16:21:19.997Z,15.12
2017-09-15T16:22:34.146Z,15.11
2017-09-15T16:23:48.151Z,15.17
2017-09-15T16:25:03.122Z,15.17
2017-09-15T16:26:16.732Z,15.14
2017-09-15T16:27:30.343Z,15.08
2017-09-15T16:28:43.976Z,15.15
2017-09-15T16:29:57.558Z,15.14
2017-09-15T16:31:11.908Z,15.04
2017-09-15T16:32:26.637Z,15.08
2017-09-15T16:33:41.393Z,14.96
2017-09-15T16:34:57.077Z,15.1
2017-09-15T16:36:11.567Z,15.08
2017-09-15T16:37:26.629Z,15.29
2017-09-15T16:38:40.875Z,15.25
2017-09-15T16:39:54.938Z,15.15
2017-09-15T16:41:10.243Z,15.02
2017-09-15T16:42:25.075Z,15.04
2017-09-15T16:43:38.808Z,15.04
2017-09-15T16:44:52.544Z,15.08
2017-09-15T16:46:06.259Z,15.08
2017-09-15T16:47:20.306Z,15.05
2017-09-15T16:48:34.648Z,15.05
2017-09-15T16:49:48.681Z,14.96
2017-09-15T16:51:02.881Z,14.99
2017-09-15T16:52:16.992Z,14.97
2017-09-15T16:53:31.118Z,14.97
2017-09-15T16:54:46.856Z,15
2017-09-15T16:56:02.956Z,14.93
2017-09-15T16:57:17.879Z,14.82
2017-09-15T16:58:32.306Z,14.79
2017-09-15T16:59:46.517Z,14.77
2017-09-15T17:01:00.147Z,14.77
2017-09-15T17:02:14.241Z,14.63
2017-09-15T17:03:28.659Z,14.49
2017-09-15T17:04:42.348Z,14.53
2017-09-15T17:05:56.151Z,14.38
2017-09-15T17:07:09.827Z,14.44
2017-09-15T17:08:24.056Z,14.36
2017-09-15T17:09:38.227Z,14.33
2017-09-15T17:10:52.507Z,14.3
2017-09-15T17:12:06.182Z,14.28
2017-09-15T17:13:20.277Z,14.18
2017-09-15T17:14:33.955Z,14.18
2017-09-15T17:15:47.783Z,14.18
2017-09-15T17:17:02.439Z,14.15
2017-09-15T17:18:17.042Z,14.05
2017-09-15T17:19:31.001Z,14.04
2017-09-15T17:20:45.022Z,14.03
2017-09-15T17:21:58.681Z,14
2017-09-15T17:23:12.383Z,13.87
2017-09-15T17:24:26.512Z,13.8
2017-09-15T17:25:40.298Z,13.82
2017-09-15T17:26:54.670Z,13.8
2017-09-15T17:28:08.316Z,13.7
2017-09-15T17:29:26.136Z,13.75
2017-09-15T17:30:50.480Z,13.68
2017-09-15T17:32:19.293Z,13.61
2017-09-15T17:33:44.373Z,13.6
2017-09-15T17:35:06.987Z,13.52
2017-09-15T17:36:21.057Z,13.52
2017-09-15T17:37:35.051Z,13.4
2017-09-15T17:38:48.954Z,13.42
2017-09-15T17:40:03.240Z,13.37
2017-09-15T17:41:17.039Z,13.3
2017-09-15T17:42:30.819Z,13.31
2017-09-15T17:43:44.622Z,13.24
2017-09-15T17:44:58.872Z,13.2
2017-09-15T17:46:12.881Z,13.19
2017-09-15T17:47:27.285Z,13.21
2017-09-15T17:48:40.918Z,13.12
2017-09-15T17:49:54.542Z,13.05
2017-09-15T17:51:08.756Z,13.13
2017-09-15T17:52:22.767Z,13.06
2017-09-15T17:53:36.711Z,12.99
2017-09-15T17:54:50.368Z,13.01
2017-09-15T17:56:04.526Z,12.98
2017-09-15T17:57:19.539Z,12.91
2017-09-15T17:58:33.639Z,12.83
2017-09-15T17:59:47.941Z,12.83
2017-09-15T18:01:01.533Z,12.75
2017-09-15T18:02:15.197Z,12.86
2017-09-15T18:03:29.348Z,12.88
2017-09-15T18:04:43.262Z,12.8
2017-09-15T18:05:57.019Z,12.78
2017-09-15T18:07:11.032Z,12.68
2017-09-15T18:08:24.747Z,12.68
2017-09-15T18:09:39.321Z,12.7
2017-09-15T18:10:52.888Z,12.69
2017-09-15T18:12:07.009Z,12.69
2017-09-15T18:13:21.520Z,12.63
2017-09-15T18:14:36.800Z,12.57
2017-09-15T18:15:50.935Z,12.72
2017-09-15T18:17:05.828Z,12.66
2017-09-15T18:18:19.849Z,12.63
2017-09-15T18:19:33.501Z,12.68
2017-09-15T18:20:47.644Z,12.7
2017-09-15T18:22:02.425Z,12.55
2017-09-15T18:23:17.217Z,12.68
2017-09-15T18:24:31.496Z,12.68
2017-09-15T18:25:45.230Z,12.63
2017-09-15T18:27:00.013Z,12.55
2017-09-15T18:28:14.185Z,12.53
2017-09-15T18:29:28.910Z,12.54
2017-09-15T18:30:43.424Z,12.57
2017-09-15T18:31:57.746Z,12.62
2017-09-15T18:33:12.035Z,12.44
2017-09-15T18:34:27.441Z,12.43
2017-09-15T18:35:41.640Z,12.45
2017-09-15T18:36:56.259Z,12.45
2017-09-15T18:38:10.671Z,12.44
2017-09-15T18:39:25.665Z,12.43
2017-09-15T18:40:39.591Z,12.33
2017-09-15T18:41:53.458Z,12.33
2017-09-15T18:43:07.194Z,12.37
2017-09-15T18:44:20.921Z,12.3
2017-09-15T18:45:35.074Z,12.33
2017-09-15T18:46:49.319Z,12.29
2017-09-15T18:48:03.021Z,12.33
2017-09-15T18:49:17.030Z,12.35
2017-09-15T18:50:30.749Z,12.36
2017-09-15T18:51:44.384Z,12.44
2017-09-15T18:52:58.747Z,12.43
2017-09-15T18:54:13.440Z,12.39
2017-09-15T18:55:27.281Z,12.36
2017-09-15T18:56:41.157Z,12.3
2017-09-15T18:57:55.077Z,12.26
2017-09-15T18:59:08.868Z,12.23
2017-09-15T19:00:22.532Z,12.21
2017-09-15T19:01:36.520Z,12.2
2017-09-15T19:02:50.277Z,12.25
2017-09-15T19:04:04.737Z,12.14
2017-09-15T19:05:22.572Z,12.21
2017-09-15T19:06:36.655Z,12.11
2017-09-15T19:07:50.375Z,12.25
2017-09-15T19:09:04.455Z,12.26
2017-09-15T19:10:18.198Z,12.32
2017-09-15T19:11:32.269Z,12.36
2017-09-15T19:12:46.326Z,12.39
2017-09-15T19:14:02.023Z,12.45
2017-09-15T19:15:16.192Z,12.43
2017-09-15T19:16:29.906Z,12.44
2017-09-15T19:17:44.114Z,12.45
2017-09-15T19:18:57.897Z,12.45
2017-09-15T19:20:13.091Z,12.43
2017-09-15T19:21:29.242Z,12.43
2017-09-15T19:22:43.439Z,12.43
2017-09-15T19:23:57.985Z,12.43
2017-09-15T19:25:11.960Z,12.39
2017-09-15T19:26:25.622Z,12.3
2017-09-15T19:27:39.225Z,12.28
2017-09-15T19:28:53.542Z,12.29
2017-09-15T19:30:07.679Z,12.21
2017-09-15T19:31:21.789Z,12.23
2017-09-15T19:32:35.973Z,12.28
2017-09-15T19:33:49.581Z,12.26
2017-09-15T19:35:03.504Z,12.23
2017-09-15T19:36:18.008Z,12.11
2017-09-15T19:37:32.218Z,12.2
2017-09-15T19:38:46.001Z,12.1
2017-09-15T19:39:59.829Z,12.2
2017-09-15T19:41:13.430Z,12.11
2017-09-15T19:42:28.136Z,12.08
2017-09-15T19:43:43.662Z,12.05
2017-09-15T19:44:58.403Z,12.07
2017-09-15T19:46:12.566Z,12.08
2017-09-15T19:47:27.365Z,12.08
2017-09-15T19:48:42.661Z,12.03
2017-09-15T19:49:56.345Z,12.07
2017-09-15T19:51:10.858Z,12
2017-09-15T19:52:24.837Z,12.02
2017-09-15T19:53:38.636Z,12.03
2017-09-15T19:54:52.978Z,12
2017-09-15T19:56:06.794Z,11.93
2017-09-15T19:57:20.377Z,11.83
2017-09-15T19:58:34.452Z,11.77
2017-09-15T19:59:48.193Z,11.8
2017-09-15T20:01:02.459Z,11.78
2017-09-15T20:02:16.095Z,11.74
2017-09-15T20:03:29.823Z,11.65
2017-09-15T20:04:58.019Z,11.62
2017-09-15T20:07:03.116Z,11.59
2017-09-15T20:09:02.547Z,11.53
2017-09-15T20:11:14.225Z,11.59
2017-09-15T20:13:12.798Z,11.59
2017-09-15T20:15:11.854Z,11.56
2017-09-15T20:16:25.531Z,11.65
2017-09-15T20:17:39.174Z,11.58
2017-09-15T20:18:52.991Z,11.59
2017-09-15T20:20:21.714Z,11.63
2017-09-15T20:21:35.766Z,11.62
2017-09-15T20:22:49.878Z,11.56
2017-09-15T20:24:03.990Z,11.49
2017-09-15T20:25:18.120Z,11.49
2017-09-15T20:26:32.043Z,11.38
2017-09-15T20:27:45.666Z,11.45
2017-09-15T20:28:59.271Z,11.35
2017-09-15T20:30:13.527Z,11.37
2017-09-15T20:31:30.519Z,11.44
2017-09-15T20:32:44.514Z,11.35
2017-09-15T20:33:58.559Z,11.35
2017-09-15T20:35:12.143Z,11.33
2017-09-15T20:36:25.836Z,11.25
2017-09-15T20:37:39.652Z,11.25
2017-09-15T20:38:53.878Z,11.26
2017-09-15T20:40:07.749Z,11.23
2017-09-15T20:41:22.307Z,11.22
2017-09-15T20:42:36.501Z,11.18
2017-09-15T20:43:50.112Z,11.18
2017-09-15T20:45:03.971Z,11.15
2017-09-15T20:46:17.773Z,11.08
2017-09-15T20:47:31.406Z,11.05
2017-09-15T20:48:45.063Z,11.04
2017-09-15T20:50:01.248Z,10.92
2017-09-15T20:51:15.291Z,11.01
2017-09-15T20:52:28.865Z,10.9
2017-09-15T20:53:43.511Z,10.84
2017-09-15T20:54:57.367Z,10.82
2017-09-15T20:56:11.167Z,10.65
2017-09-15T20:57:25.070Z,10.64
2017-09-15T20:58:38.683Z,10.64
2017-09-15T20:59:52.919Z,10.71
2017-09-15T21:01:06.754Z,10.64
2017-09-15T21:02:20.749Z,10.64
2017-09-15T21:03:35.002Z,10.59
2017-09-15T21:04:50.126Z,10.59
2017-09-15T21:06:04.158Z,10.55
2017-09-15T21:07:17.744Z,10.55